Time;durP1;ratioP1;P1;durP2;ratioP2;P2;SDS_P1;SDS_P2;PMS_P1;PMS_P2;Temp;Humidity;BMP_temperature;BMP_pressure;BME280_temperature;BME280_humidity;BME280_pressure;Samples;Min_cycle;Max_cycle;Signal;HPM_P1;HPM_P2
2021/12/22 00:01:30;;;;;;;4.43;3.97;;;22.40;35.70;;;;;;5011370;28;23198;-60
2021/12/22 00:03:56;;;;;;;5.05;4.53;;;22.30;35.50;;;;;;5013698;28;20049;-60
2021/12/22 00:06:25;;;;;;;4.97;3.95;;;22.30;35.60;;;;;;5011380;28;20034;-60
2021/12/22 00:08:51;;;;;;;5.00;4.10;;;22.30;35.60;;;;;;5014521;28;20037;-59
2021/12/22 00:11:18;;;;;;;4.72;4.00;;;22.30;35.70;;;;;;5012630;28;20045;-59
2021/12/22 00:13:44;;;;;;;5.57;4.10;;;22.20;35.60;;;;;;5014047;28;20053;-60
2021/12/22 00:16:09;;;;;;;5.53;4.43;;;22.20;35.50;;;;;;5011648;28;33255;-60
2021/12/22 00:18:35;;;;;;;4.82;4.32;;;22.20;35.60;;;;;;5013354;28;20046;-59
2021/12/22 00:21:02;;;;;;;5.10;4.03;;;22.20;35.60;;;;;;5011254;28;20045;-60
2021/12/22 00:23:29;;;;;;;6.22;4.40;;;22.20;35.50;;;;;;5013139;28;20050;-59
2021/12/22 00:25:54;;;;;;;7.45;4.07;;;22.10;35.60;;;;;;5012054;28;20037;-60
2021/12/22 00:28:20;;;;;;;4.93;4.43;;;22.10;35.60;;;;;;5013436;28;20733;-60
2021/12/22 00:30:46;;;;;;;5.72;4.30;;;22.10;35.50;;;;;;5011271;28;22939;-60
2021/12/22 00:33:13;;;;;;;4.43;3.75;;;22.10;35.50;;;;;;5015220;28;20389;-60
2021/12/22 00:35:45;;;;;;;4.82;4.35;;;22.10;35.40;;;;;;5013011;28;20041;-60
2021/12/22 00:38:12;;;;;;;4.88;4.38;;;22.10;35.40;;;;;;5012680;28;20045;-60
2021/12/22 00:40:39;;;;;;;4.97;4.20;;;22.10;35.50;;;;;;5010843;28;20144;-60
2021/12/22 00:43:05;;;;;;;4.93;4.50;;;22.10;35.50;;;;;;5014214;28;20034;-59
2021/12/22 00:45:33;;;;;;;4.25;3.85;;;22.00;35.40;;;;;;5010814;28;20044;-60
2021/12/22 00:48:00;;;;;;;4.88;4.10;;;22.00;35.40;;;;;;5012791;28;20199;-60
2021/12/22 00:50:26;;;;;;;5.10;4.60;;;22.00;35.40;;;;;;5009895;28;20147;-60
2021/12/22 00:52:51;;;;;;;4.10;3.70;;;22.00;35.50;;;;;;5044876;28;20124;-60
2021/12/22 00:55:19;;;;;;;4.65;3.90;;;22.00;35.50;;;;;;5012645;28;20064;-59
2021/12/22 00:57:46;;;;;;;10.18;4.28;;;22.00;35.40;;;;;;5013258;28;20045;-60
2021/12/22 01:00:13;;;;;;;6.10;4.57;;;21.90;35.40;;;;;;5013662;28;20169;-60
2021/12/22 01:02:39;;;;;;;4.18;3.78;;;21.90;35.40;;;;;;5013290;28;20049;-60
2021/12/22 01:05:05;;;;;;;4.20;3.80;;;21.90;35.40;;;;;;5011460;28;20064;-60
2021/12/22 01:07:31;;;;;;;5.20;4.65;;;21.90;35.40;;;;;;5015975;28;20041;-60
2021/12/22 01:09:56;;;;;;;4.82;4.43;;;21.80;35.30;;;;;;5012768;28;20398;-60
2021/12/22 01:12:22;;;;;;;4.13;3.72;;;21.90;35.30;;;;;;5010596;28;33050;-59
2021/12/22 01:14:48;;;;;;;5.68;4.65;;;21.80;35.40;;;;;;5011857;28;20041;-59
2021/12/22 01:17:16;;;;;;;4.75;4.35;;;21.80;35.40;;;;;;5015520;28;20034;-59
2021/12/22 01:20:05;;;;;;;5.10;4.13;;;21.80;35.40;;;;;;5010695;28;20080;-59
2021/12/22 01:22:46;;;;;;;5.55;4.20;;;21.80;35.50;;;;;;5012141;28;20033;-58
2021/12/22 01:25:14;;;;;;;4.80;4.22;;;21.80;35.50;;;;;;5014872;28;20485;-59
2021/12/22 01:27:42;;;;;;;4.68;4.05;;;21.80;35.70;;;;;;5014506;28;30684;-60
2021/12/22 01:30:15;;;;;;;4.78;4.20;;;21.80;35.70;;;;;;5017134;28;20936;-60
2021/12/22 01:32:42;;;;;;;4.53;3.95;;;21.70;35.50;;;;;;5016824;28;20055;-60
2021/12/22 01:35:11;;;;;;;4.75;4.25;;;21.70;35.60;;;;;;5017346;28;20049;-59
2021/12/22 01:37:36;;;;;;;5.03;3.90;;;21.70;35.60;;;;;;5015752;28;20064;-60
2021/12/22 01:40:04;;;;;;;4.70;4.30;;;21.70;35.60;;;;;;5016735;28;22839;-59
2021/12/22 01:42:30;;;;;;;4.40;4.00;;;21.70;35.50;;;;;;5016650;28;20044;-59
2021/12/22 01:45:13;;;;;;;4.38;3.97;;;21.60;35.60;;;;;;5018028;28;20179;-59
2021/12/22 01:50:48;;;;;;;4.80;4.10;;;21.60;35.60;;;;;;5016338;28;20096;-59
2021/12/22 01:53:22;;;;;;;4.40;4.00;;;21.60;35.70;;;;;;5015712;28;20095;-60
2021/12/22 01:58:44;;;;;;;4.47;4.07;;;21.60;35.60;;;;;;5016992;28;20045;-59
2021/12/22 02:01:10;;;;;;;4.82;4.30;;;21.50;35.60;;;;;;5016870;28;20040;-59
2021/12/22 02:03:39;;;;;;;4.50;4.10;;;21.50;35.70;;;;;;5002669;28;20049;-59
2021/12/22 02:06:06;;;;;;;5.15;4.32;;;21.50;35.70;;;;;;5014084;28;20040;-59
2021/12/22 02:08:44;;;;;;;3.95;3.55;;;21.50;35.60;;;;;;5028153;28;23406;-60
2021/12/22 02:11:11;;;;;;;4.43;4.05;;;21.50;35.50;;;;;;5014803;28;20140;-58
2021/12/22 02:13:41;;;;;;;4.75;4.20;;;21.50;35.60;;;;;;5016888;28;20073;-59
2021/12/22 02:16:12;;;;;;;4.55;4.18;;;21.50;35.60;;;;;;5013938;28;20099;-59
2021/12/22 02:18:41;;;;;;;4.82;4.30;;;21.50;35.60;;;;;;5014081;28;20041;-59
2021/12/22 02:21:07;;;;;;;4.15;3.75;;;21.40;35.40;;;;;;5013555;28;20128;-60
2021/12/22 02:23:34;;;;;;;4.50;4.10;;;21.40;35.50;;;;;;5011734;28;30469;-60
2021/12/22 02:26:08;;;;;;;4.68;4.18;;;21.40;35.40;;;;;;5017255;28;20381;-60
2021/12/22 02:28:37;;;;;;;4.63;3.90;;;21.40;35.40;;;;;;5018179;28;20853;-60
2021/12/22 02:31:02;;;;;;;10.93;4.10;;;21.40;35.40;;;;;;5013920;28;20053;-60
2021/12/22 02:33:39;;;;;;;4.68;4.25;;;21.40;35.50;;;;;;5016969;28;20055;-60
2021/12/22 02:38:38;;;;;;;6.13;4.10;;;21.30;35.30;;;;;;5016415;28;20049;-60
2021/12/22 02:41:04;;;;;;;4.68;4.25;;;21.30;35.30;;;;;;5018569;28;20519;-59
2021/12/22 02:43:33;;;;;;;5.10;4.30;;;21.30;35.30;;;;;;5016113;28;20117;-59
2021/12/22 02:46:00;;;;;;;4.43;3.78;;;21.30;35.40;;;;;;5013934;28;20038;-59
2021/12/22 02:48:30;;;;;;;4.07;3.63;;;21.30;35.40;;;;;;5014005;28;20060;-60
2021/12/22 02:50:59;;;;;;;4.50;4.10;;;21.30;35.30;;;;;;5012710;28;28790;-60
2021/12/22 02:53:30;;;;;;;4.25;3.85;;;21.20;35.50;;;;;;5018467;28;20357;-59
2021/12/22 02:56:12;;;;;;;4.28;3.88;;;21.20;35.20;;;;;;5013567;28;20042;-59
2021/12/22 02:58:48;;;;;;;4.65;4.10;;;21.20;35.30;;;;;;5012989;28;20052;-60
2021/12/22 03:04:10;;;;;;;4.10;3.70;;;21.20;35.20;;;;;;4982936;28;20053;-59
2021/12/22 03:06:55;;;;;;;4.03;3.70;;;21.20;35.20;;;;;;5009331;28;23151;-60
2021/12/22 03:09:26;;;;;;;4.30;3.90;;;21.20;35.20;;;;;;5012160;28;20191;-60
2021/12/22 03:11:54;;;;;;;4.18;3.78;;;21.20;35.20;;;;;;5012191;28;20065;-59
2021/12/22 03:14:21;;;;;;;4.28;3.88;;;21.10;35.10;;;;;;5013835;28;20485;-59
2021/12/22 03:16:49;;;;;;;4.30;3.90;;;21.10;35.10;;;;;;5043425;28;20051;-59
2021/12/22 03:19:17;;;;;;;4.20;3.80;;;21.10;35.10;;;;;;5014181;28;36591;-60
2021/12/22 03:21:43;;;;;;;4.30;3.90;;;21.10;35.10;;;;;;5010910;28;20432;-60
2021/12/22 03:24:11;;;;;;;4.30;3.90;;;21.10;35.10;;;;;;5015793;28;20113;-59
2021/12/22 03:26:41;;;;;;;4.70;4.28;;;21.10;35.10;;;;;;5013137;28;20371;-59
2021/12/22 03:29:09;;;;;;;4.05;3.75;;;21.00;35.00;;;;;;5015825;28;20175;-59
2021/12/22 03:31:35;;;;;;;4.03;3.72;;;21.00;35.00;;;;;;5010701;28;20596;-59
2021/12/22 03:34:01;;;;;;;4.82;4.15;;;21.00;35.00;;;;;;5010742;28;23223;-60
2021/12/22 03:36:26;;;;;;;4.50;4.10;;;21.00;35.00;;;;;;5012949;28;20561;-59
2021/12/22 03:38:52;;;;;;;4.47;4.07;;;21.00;34.90;;;;;;5011812;28;20041;-59
2021/12/22 03:41:17;;;;;;;4.30;3.90;;;21.00;34.90;;;;;;5015428;28;20033;-57
2021/12/22 03:43:43;;;;;;;4.60;3.75;;;21.00;34.90;;;;;;5011974;28;20087;-59
2021/12/22 03:46:08;;;;;;;4.40;4.00;;;21.00;34.90;;;;;;5014886;28;20045;-59
2021/12/22 03:48:34;;;;;;;4.53;4.13;;;20.90;34.90;;;;;;5009456;28;23878;-59
2021/12/22 03:50:59;;;;;;;5.00;4.35;;;20.90;34.90;;;;;;5013697;28;20037;-60
2021/12/22 03:53:25;;;;;;;4.75;4.10;;;20.90;34.80;;;;;;5011461;28;20788;-59
2021/12/22 03:55:51;;;;;;;4.68;4.28;;;20.90;34.80;;;;;;5028379;28;20054;-60
2021/12/22 03:58:16;;;;;;;4.60;4.20;;;20.90;34.80;;;;;;5013702;28;20048;-60
2021/12/22 04:00:43;;;;;;;4.57;4.18;;;20.90;34.80;;;;;;5014211;28;20622;-60
2021/12/22 04:03:15;;;;;;;4.38;3.95;;;20.90;34.80;;;;;;5013693;28;20073;-60
2021/12/22 04:05:41;;;;;;;4.85;4.45;;;20.90;34.70;;;;;;5012036;28;20049;-59
2021/12/22 04:08:07;;;;;;;4.55;4.15;;;20.90;35.40;;;;;;5012513;28;21273;-59
2021/12/22 04:10:32;;;;;;;4.07;3.78;;;20.80;34.70;;;;;;5010643;28;20242;-59
2021/12/22 04:12:58;;;;;;;4.38;4.03;;;20.80;34.70;;;;;;5015219;28;20061;-60
2021/12/22 04:15:25;;;;;;;4.40;4.00;;;20.80;34.60;;;;;;5009460;28;33740;-60
2021/12/22 04:17:52;;;;;;;5.03;4.55;;;20.80;34.60;;;;;;5017886;28;20145;-59
2021/12/22 04:20:17;;;;;;;4.72;4.22;;;20.80;34.60;;;;;;5011914;28;20049;-58
2021/12/22 04:22:43;;;;;;;5.10;4.43;;;20.80;34.60;;;;;;5015488;28;20041;-58
2021/12/22 04:25:09;;;;;;;5.20;3.90;;;20.80;34.60;;;;;;5014423;28;20393;-60
2021/12/22 04:27:36;;;;;;;4.30;4.00;;;20.70;34.50;;;;;;5014878;28;20089;-59
2021/12/22 04:30:06;;;;;;;5.20;4.30;;;20.70;34.50;;;;;;5012169;28;33146;-59
2021/12/22 04:32:32;;;;;;;4.55;4.15;;;20.70;34.50;;;;;;5016329;28;20559;-60
2021/12/22 04:34:57;;;;;;;5.47;4.00;;;20.70;34.50;;;;;;5013982;28;20053;-59
2021/12/22 04:37:23;;;;;;;4.80;4.32;;;20.70;34.50;;;;;;5014287;28;20465;-58
2021/12/22 04:39:48;;;;;;;4.82;4.43;;;20.70;34.50;;;;;;5015853;28;20441;-59
2021/12/22 04:42:16;;;;;;;4.50;4.10;;;20.70;34.50;;;;;;5012177;28;20446;-60
2021/12/22 04:44:42;;;;;;;4.63;4.22;;;20.60;34.50;;;;;;5012923;28;31201;-60
2021/12/22 04:47:07;;;;;;;4.72;4.32;;;20.70;34.50;;;;;;5012092;28;20182;-59
2021/12/22 04:49:33;;;;;;;4.93;4.53;;;20.70;34.50;;;;;;5014630;28;20055;-59
2021/12/22 04:52:00;;;;;;;4.35;3.95;;;20.60;34.40;;;;;;5013229;28;20037;-59
2021/12/22 04:56:55;;;;;;;4.82;4.40;;;20.60;34.40;;;;;;5013857;28;23724;-60
2021/12/22 04:59:22;;;;;;;4.82;4.43;;;20.60;34.50;;;;;;5013616;28;20037;-59
2021/12/22 05:01:48;;;;;;;4.90;4.40;;;20.60;34.40;;;;;;5012915;28;20095;-59
2021/12/22 05:04:13;;;;;;;4.00;3.63;;;20.60;34.50;;;;;;5015971;28;20041;-60
2021/12/22 05:06:39;;;;;;;4.57;4.18;;;20.60;34.50;;;;;;5016175;28;20409;-59
2021/12/22 05:09:07;;;;;;;4.38;3.97;;;20.60;34.50;;;;;;5017128;28;20052;-59
2021/12/22 05:11:33;;;;;;;5.47;4.20;;;20.60;34.40;;;;;;5013931;28;23049;-60
2021/12/22 05:14:02;;;;;;;4.78;4.38;;;20.60;34.50;;;;;;5018055;28;20708;-59
2021/12/22 05:16:28;;;;;;;8.20;4.72;;;20.60;34.40;;;;;;5015594;28;20080;-59
2021/12/22 05:18:58;;;;;;;5.18;4.28;;;20.60;34.40;;;;;;5017083;28;20116;-60
2021/12/22 05:21:24;;;;;;;4.68;4.28;;;20.60;34.40;;;;;;5011631;28;20041;-59
2021/12/22 05:23:55;;;;;;;4.82;4.35;;;20.60;34.40;;;;;;5016168;28;20239;-60
2021/12/22 05:26:22;;;;;;;5.18;4.28;;;20.60;34.30;;;;;;5015672;28;23650;-60
2021/12/22 05:28:47;;;;;;;5.60;4.40;;;20.60;34.40;;;;;;5015580;28;20497;-59
2021/12/22 05:31:15;;;;;;;4.65;4.25;;;20.60;34.30;;;;;;5016484;28;20046;-60
2021/12/22 05:33:40;;;;;;;4.95;4.47;;;20.60;34.30;;;;;;5014476;28;20049;-59
2021/12/22 05:36:06;;;;;;;4.70;4.30;;;20.60;34.20;;;;;;5017785;28;20393;-59
2021/12/22 05:38:32;;;;;;;4.57;4.18;;;20.60;34.10;;;;;;5015933;28;20811;-59
2021/12/22 05:40:58;;;;;;;4.65;4.25;;;20.60;34.20;;;;;;5013513;28;32756;-60
2021/12/22 05:43:23;;;;;;;5.18;4.60;;;20.70;34.20;;;;;;5015034;28;20070;-59
2021/12/22 05:45:49;;;;;;;4.93;4.53;;;20.70;34.20;;;;;;5014732;28;20503;-60
2021/12/22 05:48:15;;;;;;;4.60;4.20;;;20.70;34.10;;;;;;5018064;28;20038;-60
2021/12/22 05:50:45;;;;;;;4.78;4.38;;;20.70;34.30;;;;;;5013983;28;20821;-59
2021/12/22 05:53:11;;;;;;;5.10;4.60;;;20.70;34.30;;;;;;5013499;28;33649;-60
2021/12/22 05:55:36;;;;;;;4.90;4.50;;;20.70;34.30;;;;;;5014114;28;20041;-59
2021/12/22 05:58:02;;;;;;;4.45;4.05;;;20.70;34.40;;;;;;5016833;28;20044;-59
2021/12/22 06:00:28;;;;;;;5.15;4.68;;;20.70;34.50;;;;;;5015265;28;20066;-59
2021/12/22 06:02:53;;;;;;;4.78;4.28;;;20.70;34.50;;;;;;5018269;28;20022;-60
2021/12/22 06:05:19;;;;;;;4.82;4.40;;;20.70;34.60;;;;;;5014272;28;20052;-59
2021/12/22 06:07:45;;;;;;;5.25;4.20;;;20.80;34.70;;;;;;5014317;28;25721;-59
2021/12/22 06:10:11;;;;;;;4.53;4.13;;;20.80;34.70;;;;;;5015769;28;20073;-59
2021/12/22 06:12:37;;;;;;;4.53;4.10;;;20.80;34.60;;;;;;5016329;28;20476;-60
2021/12/22 06:15:03;;;;;;;5.57;4.35;;;20.80;34.60;;;;;;5014173;28;20046;-58
2021/12/22 06:17:29;;;;;;;4.65;4.22;;;20.80;34.70;;;;;;5017215;28;20710;-59
2021/12/22 06:19:55;;;;;;;4.35;3.95;;;20.80;34.70;;;;;;5017032;28;20220;-59
2021/12/22 06:22:21;;;;;;;6.00;4.20;;;20.80;34.70;;;;;;5013166;28;30783;-60
2021/12/22 06:24:47;;;;;;;4.63;4.22;;;20.80;34.70;;;;;;5020107;28;20041;-59
2021/12/22 06:27:13;;;;;;;4.78;4.28;;;20.90;34.70;;;;;;5014310;28;20049;-60
2021/12/22 06:29:38;;;;;;;4.63;4.05;;;20.80;34.60;;;;;;5015215;28;20112;-60
2021/12/22 06:32:04;;;;;;;4.55;4.15;;;20.90;34.60;;;;;;5016649;28;20044;-59
2021/12/22 06:34:30;;;;;;;4.75;4.35;;;20.90;34.70;;;;;;5015489;28;20064;-59
2021/12/22 06:36:57;;;;;;;4.70;4.30;;;20.90;35.50;;;;;;5043075;28;23683;-59
2021/12/22 06:39:23;;;;;;;4.25;3.85;;;20.90;34.80;;;;;;5007748;28;20050;-58
2021/12/22 06:41:49;;;;;;;4.70;4.30;;;20.90;34.70;;;;;;5018124;28;20477;-59
2021/12/22 06:44:15;;;;;;;4.43;4.10;;;20.90;34.70;;;;;;5013434;28;20037;-60
2021/12/22 06:46:43;;;;;;;5.25;3.90;;;20.90;34.70;;;;;;5017159;28;20208;-60
2021/12/22 06:49:10;;;;;;;5.15;4.40;;;20.90;34.90;;;;;;5013861;28;20084;-60
2021/12/22 06:51:37;;;;;;;5.32;4.05;;;20.90;35.00;;;;;;5014421;28;25673;-60
2021/12/22 06:54:03;;;;;;;4.90;4.18;;;21.00;35.10;;;;;;5013937;28;20048;-60
2021/12/22 06:56:29;;;;;;;4.07;3.67;;;21.00;35.10;;;;;;5016828;28;20098;-59
2021/12/22 06:58:57;;;;;;;4.60;4.20;;;21.00;35.20;;;;;;5018125;28;20625;-60
2021/12/22 07:01:23;;;;;;;4.97;4.57;;;21.00;35.30;;;;;;5014183;28;20041;-58
2021/12/22 07:03:48;;;;;;;5.60;4.15;;;21.00;35.40;;;;;;5013709;28;20627;-60
2021/12/22 07:06:14;;;;;;;4.35;4.03;;;21.00;35.40;;;;;;5013008;28;20053;-59
2021/12/22 07:08:39;;;;;;;5.68;4.50;;;21.10;35.50;;;;;;5013254;28;20048;-59
2021/12/22 07:11:05;;;;;;;4.20;3.80;;;21.10;35.60;;;;;;5028224;28;20113;-60
2021/12/22 07:13:31;;;;;;;4.20;3.80;;;21.10;35.70;;;;;;5016419;28;20110;-59
2021/12/22 07:15:57;;;;;;;7.15;4.10;;;21.10;35.90;;;;;;5028833;28;20049;-58
2021/12/22 07:18:23;;;;;;;4.88;4.32;;;21.10;35.80;;;;;;5010893;28;20697;-60
2021/12/22 07:20:48;;;;;;;6.82;4.18;;;21.10;35.70;;;;;;5013087;28;20116;-59
2021/12/22 07:23:14;;;;;;;4.30;3.90;;;21.20;35.80;;;;;;5011461;28;20477;-59
2021/12/22 07:25:39;;;;;;;4.75;4.35;;;21.20;35.80;;;;;;5015248;28;20352;-60
2021/12/22 07:28:05;;;;;;;4.68;3.70;;;21.20;35.80;;;;;;5013177;28;20057;-59
2021/12/22 07:30:31;;;;;;;4.35;3.90;;;21.20;35.70;;;;;;5012848;28;20037;-59
2021/12/22 07:32:57;;;;;;;4.25;3.90;;;21.20;35.80;;;;;;5008655;28;25779;-60
2021/12/22 07:35:58;;;;;;;4.53;4.05;;;21.20;35.70;;;;;;5028995;28;20500;-59
2021/12/22 07:38:23;;;;;;;;;;;21.20;35.70;;;;;;5015112;28;20136;-60
2021/12/22 07:40:50;;;;;;;5.30;3.67;;;21.20;35.60;;;;;;5012410;28;20008;-60
2021/12/22 07:43:16;;;;;;;4.05;3.65;;;21.20;35.60;;;;;;5014328;28;20536;-59
2021/12/22 07:45:41;;;;;;;4.85;4.18;;;21.20;35.60;;;;;;5011421;28;21363;-59
2021/12/22 07:48:07;;;;;;;5.07;4.28;;;21.20;35.60;;;;;;5016705;28;20040;-60
2021/12/22 07:50:32;;;;;;;4.00;3.60;;;21.20;35.50;;;;;;5013895;28;20084;-60
2021/12/22 07:52:58;;;;;;;5.05;3.30;;;21.30;35.50;;;;;;5015632;28;20041;-59
2021/12/22 07:55:24;;;;;;;4.47;4.07;;;21.30;35.50;;;;;;5013750;28;20167;-59
2021/12/22 07:57:49;;;;;;;5.80;3.80;;;21.30;35.40;;;;;;5015500;28;20050;-59
2021/12/22 08:00:15;;;;;;;4.22;3.58;;;21.40;35.40;;;;;;5007832;28;30916;-59
2021/12/22 08:02:41;;;;;;;4.72;3.85;;;21.40;35.40;;;;;;5017437;28;20037;-59
2021/12/22 08:05:07;;;;;;;4.10;3.40;;;21.40;35.40;;;;;;5013953;28;20421;-59
2021/12/22 08:07:34;;;;;;;4.03;3.58;;;21.40;35.40;;;;;;5015851;28;20044;-59
2021/12/22 08:10:02;;;;;;;4.07;3.67;;;21.40;35.30;;;;;;5013157;28;20052;-60
2021/12/22 08:12:27;;;;;;;8.32;3.97;;;21.40;35.40;;;;;;5015404;28;20067;-60
2021/12/22 08:14:53;;;;;;;4.43;3.92;;;21.40;35.30;;;;;;5013975;28;33215;-60
2021/12/22 08:17:20;;;;;;;4.95;3.83;;;21.40;35.40;;;;;;5012477;28;20034;-60
2021/12/22 08:19:46;;;;;;;5.30;3.95;;;21.40;35.40;;;;;;5008868;28;20049;-59
2021/12/22 08:22:12;;;;;;;4.82;3.88;;;21.40;35.40;;;;;;5009340;28;20524;-60
2021/12/22 08:24:37;;;;;;;5.50;3.78;;;21.40;35.30;;;;;;5012424;28;20462;-60
2021/12/22 08:27:04;;;;;;;5.90;4.18;;;21.40;35.20;;;;;;5014507;28;20046;-59
2021/12/22 08:29:30;;;;;;;4.45;4.00;;;21.30;35.30;;;;;;5010194;28;20579;-59
2021/12/22 08:31:55;;;;;;;9.02;4.22;;;21.40;35.20;;;;;;5012998;28;20153;-59
2021/12/22 08:34:28;;;;;;;4.38;3.97;;;21.40;35.20;;;;;;5013536;28;20374;-60
2021/12/22 08:39:40;;;;;;;5.05;3.67;;;21.40;35.10;;;;;;5017747;28;20099;-61
2021/12/22 08:42:06;;;;;;;4.43;3.78;;;21.40;35.20;;;;;;5014373;28;20041;-60
2021/12/22 08:44:33;;;;;;;4.70;3.80;;;21.40;35.10;;;;;;5019264;28;20147;-59
2021/12/22 08:46:59;;;;;;;5.35;4.10;;;21.40;35.00;;;;;;5015699;28;20580;-60
2021/12/22 08:49:25;;;;;;;4.10;3.80;;;21.30;35.00;;;;;;5016852;28;20041;-60
2021/12/22 08:51:51;;;;;;;4.30;3.83;;;21.40;35.00;;;;;;5017318;28;20056;-60
2021/12/22 08:54:17;;;;;;;4.53;3.88;;;21.40;34.90;;;;;;5018180;28;20041;-60
2021/12/22 08:56:43;;;;;;;5.57;3.60;;;21.40;35.00;;;;;;5014700;28;33226;-60
2021/12/22 08:59:11;;;;;;;4.00;3.60;;;21.40;35.00;;;;;;5015406;28;20116;-60
2021/12/22 09:01:37;;;;;;;6.78;4.07;;;21.40;35.00;;;;;;5018026;28;20118;-59
2021/12/22 09:04:03;;;;;;;6.85;4.55;;;21.40;35.10;;;;;;5014738;28;20030;-59
2021/12/22 09:06:28;;;;;;;5.25;4.10;;;21.40;35.30;;;;;;5009801;28;20429;-58
2021/12/22 09:08:55;;;;;;;5.40;4.13;;;21.40;35.40;;;;;;5014494;28;20041;-60
2021/12/22 09:11:21;;;;;;;4.55;3.78;;;21.40;35.60;;;;;;5014789;28;33004;-60
2021/12/22 09:13:47;;;;;;;6.55;3.65;;;21.40;35.70;;;;;;5016958;28;20488;-60
2021/12/22 09:16:13;;;;;;;4.07;3.70;;;21.40;35.70;;;;;;5013005;28;20045;-59
2021/12/22 09:18:39;;;;;;;5.00;4.00;;;21.40;35.70;;;;;;5017260;28;20437;-60
2021/12/22 09:21:07;;;;;;;7.10;3.78;;;21.40;35.60;;;;;;5014980;28;20044;-60
2021/12/22 09:23:33;;;;;;;7.20;3.97;;;21.40;35.70;;;;;;5011609;28;20393;-58
2021/12/22 09:25:58;;;;;;;5.30;3.80;;;21.40;35.70;;;;;;5010935;28;31493;-59
2021/12/22 09:28:24;;;;;;;5.05;4.05;;;21.40;35.70;;;;;;5014195;28;20046;-59
2021/12/22 09:30:50;;;;;;;6.10;3.50;;;21.40;35.80;;;;;;5014216;28;20099;-59
2021/12/22 09:33:18;;;;;;;4.45;4.05;;;21.50;35.70;;;;;;5012496;28;20052;-59
2021/12/22 09:35:47;;;;;;;5.05;3.80;;;21.50;35.70;;;;;;5013674;28;20034;-59
2021/12/22 09:38:14;;;;;;;4.75;3.92;;;21.50;35.80;;;;;;5013054;28;23125;-59
2021/12/22 09:40:40;;;;;;;4.07;3.67;;;21.50;35.80;;;;;;5013741;28;21052;-59
2021/12/22 09:43:06;;;;;;;3.60;3.30;;;21.50;35.80;;;;;;5015000;28;20040;-59
2021/12/22 09:45:34;;;;;;;3.85;3.42;;;21.50;35.80;;;;;;5043908;28;21136;-59
2021/12/22 09:50:47;;;;;;;5.28;3.60;;;21.50;35.70;;;;;;5015173;28;20054;-59
2021/12/22 09:53:14;;;;;;;3.92;3.47;;;21.50;35.70;;;;;;5009830;28;25640;-57
2021/12/22 09:55:41;;;;;;;5.47;3.80;;;21.50;35.70;;;;;;5013259;28;20037;-58
2021/12/22 09:58:09;;;;;;;4.00;3.67;;;21.50;35.70;;;;;;5013863;28;20041;-59
2021/12/22 10:00:35;;;;;;;4.97;4.07;;;21.50;35.60;;;;;;5014571;28;20038;-59
2021/12/22 10:03:03;;;;;;;4.32;3.67;;;21.50;35.70;;;;;;5002661;28;20080;-59
2021/12/22 10:05:29;;;;;;;6.40;4.00;;;21.50;35.80;;;;;;5012033;28;20084;-59
2021/12/22 10:08:25;;;;;;;4.40;3.78;;;21.50;35.80;;;;;;5011089;28;33411;-60
2021/12/22 10:11:05;;;;;;;3.90;3.50;;;21.60;35.70;;;;;;5006320;28;20065;-61
2021/12/22 10:13:32;;;;;;;6.68;4.13;;;21.50;35.90;;;;;;5013468;28;20049;-59
2021/12/22 10:15:59;;;;;;;4.70;3.35;;;21.50;35.80;;;;;;5015618;28;20050;-60
2021/12/22 10:18:28;;;;;;;5.47;3.50;;;21.50;35.90;;;;;;5015223;28;20484;-61
2021/12/22 10:21:21;;;;;;;5.85;3.42;;;21.60;36.00;;;;;;5015053;28;33321;-60
2021/12/22 10:23:49;;;;;;;6.10;4.10;;;21.60;36.20;;;;;;5013991;28;20102;-60
2021/12/22 10:26:27;;;;;;;5.28;3.47;;;21.60;36.20;;;;;;5013186;28;20413;-59
2021/12/22 10:28:56;;;;;;;4.25;3.42;;;21.60;36.30;;;;;;5016078;28;20440;-60
2021/12/22 10:31:34;;;;;;;4.78;3.70;;;21.60;36.40;;;;;;5013137;28;20144;-60
2021/12/22 10:34:08;;;;;;;5.20;4.10;;;21.60;36.40;;;;;;5016990;28;20124;-60
2021/12/22 10:36:50;;;;;;;3.95;3.25;;;21.60;36.50;;;;;;5014764;28;33104;-60
2021/12/22 10:39:27;;;;;;;6.03;3.60;;;21.70;36.80;;;;;;5013518;28;20048;-60
2021/12/22 10:42:10;;;;;;;5.03;3.75;;;21.70;36.70;;;;;;5015277;28;20116;-60
2021/12/22 10:44:47;;;;;;;3.80;3.50;;;21.70;36.70;;;;;;5011600;28;20053;-60
2021/12/22 10:47:22;;;;;;;4.00;3.55;;;21.70;36.70;;;;;;5011946;28;20160;-60
2021/12/22 10:50:04;;;;;;;4.93;3.58;;;21.70;36.80;;;;;;5010504;28;23223;-60
2021/12/22 10:52:31;;;;;;;4.35;3.78;;;21.70;36.70;;;;;;5008604;28;20048;-58
2021/12/22 10:55:10;;;;;;;5.70;3.70;;;21.70;36.70;;;;;;5013781;28;20045;-58
2021/12/22 10:57:37;;;;;;;4.70;3.50;;;21.70;36.80;;;;;;5014248;28;20042;-59
2021/12/22 11:00:16;;;;;;;6.40;3.78;;;21.70;36.90;;;;;;5012711;28;20504;-59
2021/12/22 11:02:49;;;;;;;3.95;3.63;;;21.70;37.00;;;;;;5013721;28;30531;-61
2021/12/22 11:05:27;;;;;;;5.50;3.60;;;21.70;37.20;;;;;;5011223;28;20047;-60
2021/12/22 11:07:52;;;;;;;7.05;3.75;;;21.70;37.30;;;;;;5014359;28;20080;-60
2021/12/22 11:10:29;;;;;;;6.53;3.50;;;21.70;37.30;;;;;;5014017;28;20487;-60
2021/12/22 11:13:03;;;;;;;4.28;3.45;;;21.70;37.30;;;;;;5013123;28;20497;-60
2021/12/22 11:15:29;;;;;;;6.05;3.92;;;21.70;37.30;;;;;;5018171;28;20511;-60
2021/12/22 11:17:55;;;;;;;9.80;3.67;;;21.70;37.40;;;;;;5011056;28;25828;-60
2021/12/22 11:20:23;;;;;;;4.00;3.28;;;21.70;37.40;;;;;;5014505;28;20034;-60
2021/12/22 11:25:18;;;;;;;5.15;3.70;;;21.70;37.50;;;;;;5013168;28;20091;-59
2021/12/22 11:27:44;;;;;;;7.63;3.80;;;21.70;37.60;;;;;;5016047;28;20046;-60
2021/12/22 11:30:12;;;;;;;6.72;3.50;;;21.80;37.70;;;;;;5013112;28;20044;-60
2021/12/22 11:32:38;;;;;;;5.78;3.53;;;21.80;37.80;;;;;;5013142;28;23252;-59
2021/12/22 11:35:07;;;;;;;5.13;3.53;;;21.80;37.70;;;;;;5012386;28;20033;-61
2021/12/22 11:37:33;;;;;;;4.78;3.47;;;21.80;37.70;;;;;;5015022;28;20030;-61
2021/12/22 11:39:59;;;;;;;6.72;3.47;;;21.70;37.60;;;;;;5013822;28;20094;-61
2021/12/22 11:42:31;;;;;;;6.30;3.60;;;21.80;38.40;;;;;;5013313;28;20076;-61
2021/12/22 11:45:05;;;;;;;8.18;3.85;;;21.80;37.90;;;;;;5012130;28;20038;-60
2021/12/22 11:47:35;;;;;;;3.88;3.53;;;21.80;37.80;;;;;;5016045;28;20041;-60
2021/12/22 11:50:04;;;;;;;5.03;3.17;;;21.80;37.90;;;;;;5014381;28;20042;-60
2021/12/22 11:52:42;;;;;;;6.32;3.65;;;21.80;37.90;;;;;;5011553;28;20049;-59
2021/12/22 11:55:18;;;;;;;5.93;3.53;;;21.80;37.90;;;;;;5013750;28;20041;-60
2021/12/22 11:57:46;;;;;;;5.85;3.55;;;21.80;37.90;;;;;;5012215;28;20069;-60
2021/12/22 12:00:33;;;;;;;4.45;3.38;;;21.80;38.00;;;;;;5011809;28;23842;-60
2021/12/22 12:03:18;;;;;;;4.40;3.47;;;21.80;37.90;;;;;;5012958;28;20077;-60
2021/12/22 12:06:18;;;;;;;4.03;3.58;;;21.80;37.80;;;;;;5014787;28;20045;-60
2021/12/22 12:08:49;;;;;;;6.97;3.67;;;21.80;37.70;;;;;;5011431;28;20045;-60
2021/12/22 12:11:21;;;;;;;5.00;3.75;;;21.80;37.80;;;;;;5010714;28;20590;-60
2021/12/22 12:13:51;;;;;;;4.55;3.80;;;21.80;37.70;;;;;;5011699;28;32803;-60
2021/12/22 12:22:24;;;;;;;5.90;3.58;;;21.80;37.40;;;;;;5011600;28;20059;-60
2021/12/22 12:24:56;;;;;;;5.03;3.50;;;21.80;37.50;;;;;;5012105;28;20041;-60
2021/12/22 12:27:40;;;;;;;5.55;3.80;;;21.80;37.50;;;;;;5008688;28;23659;-60
2021/12/22 12:30:07;;;;;;;4.80;3.50;;;21.80;37.50;;;;;;5011238;28;20044;-60
2021/12/22 12:32:50;;;;;;;4.40;3.00;;;21.80;37.40;;;;;;5011548;28;20051;-59
2021/12/22 12:35:23;;;;;;;7.95;3.95;;;21.90;37.50;;;;;;5013952;28;20381;-59
2021/12/22 12:38:23;;;;;;;4.05;3.65;;;21.90;37.50;;;;;;5009169;28;20048;-61
2021/12/22 12:40:57;;;;;;;5.65;3.42;;;21.90;37.50;;;;;;5011790;28;20393;-60
2021/12/22 12:43:44;;;;;;;5.78;3.55;;;21.90;37.50;;;;;;5012177;28;20037;-61
2021/12/22 12:46:19;;;;;;;3.92;3.58;;;21.90;37.50;;;;;;5010693;28;20496;-60
2021/12/22 12:48:49;;;;;;;4.97;3.63;;;21.90;37.50;;;;;;5011837;28;20073;-60
2021/12/22 12:51:20;;;;;;;6.78;3.50;;;21.90;37.50;;;;;;5010723;28;20048;-60
2021/12/22 12:53:49;;;;;;;7.22;3.70;;;21.90;37.80;;;;;;5011505;28;20037;-60
2021/12/22 12:56:17;;;;;;;5.03;3.42;;;21.90;38.10;;;;;;5039666;28;20561;-60
2021/12/22 12:58:58;;;;;;;6.82;3.60;;;21.90;38.40;;;;;;5007776;28;20037;-59
2021/12/22 13:01:50;;;;;;;6.28;3.67;;;21.90;38.50;;;;;;5028538;28;20070;-60
2021/12/22 13:04:31;;;;;;;4.85;3.50;;;21.90;38.50;;;;;;5009472;28;20042;-59
2021/12/22 13:07:16;;;;;;;6.93;3.80;;;21.90;38.30;;;;;;5011789;28;20057;-61
2021/12/22 13:09:46;;;;;;;5.05;4.18;;;21.90;38.30;;;;;;5011383;28;31354;-60
2021/12/22 13:17:45;;;;;;;7.55;4.10;;;21.90;38.30;;;;;;5011587;28;20536;-60
2021/12/22 13:20:14;;;;;;;6.22;4.22;;;21.90;38.30;;;;;;5015583;28;20045;-60
2021/12/22 13:22:41;;;;;;;6.28;4.72;;;21.90;38.30;;;;;;5015513;28;20034;-60
2021/12/22 13:25:16;;;;;;;5.35;3.75;;;22.00;38.40;;;;;;5016277;28;30789;-60
2021/12/22 13:27:51;;;;;;;8.52;3.80;;;22.00;38.50;;;;;;5013065;28;20531;-60
2021/12/22 13:30:26;;;;;;;5.10;3.28;;;22.00;38.60;;;;;;5015068;28;20076;-59